Time;durP1;ratioP1;P1;durP2;ratioP2;P2;SDS_P1;SDS_P2;PMS_P1;PMS_P2;Temp;Humidity;BMP_temperature;BMP_pressure;BME280_temperature;BME280_humidity;BME280_pressure;Samples;Min_cycle;Max_cycle;Signal;HPM_P1;HPM_P2
2023/04/27 00:01:21;;;;;;;5.80;2.95;;;;;;;12.42;39.13;96837.81;6298353;28;20045;-74
2023/04/27 00:04:26;;;;;;;7.22;2.60;;;;;;;12.43;39.17;96854.53;6298301;28;20123;-73
2023/04/27 00:07:31;;;;;;;6.18;2.50;;;;;;;12.38;39.14;96852.19;6298161;28;20472;-74
2023/04/27 00:10:35;;;;;;;5.70;2.30;;;;;;;12.40;39.07;96860.00;6298388;28;20048;-74
2023/04/27 00:13:40;;;;;;;6.53;2.55;;;;;;;12.42;39.10;96864.22;6296928;28;20043;-74
2023/04/27 00:16:44;;;;;;;5.93;2.70;;;;;;;12.44;39.04;96867.59;6298044;28;20036;-74
2023/04/27 00:19:49;;;;;;;3.72;2.63;;;;;;;12.51;38.86;96862.69;6298431;28;20047;-74
2023/04/27 00:22:54;;;;;;;4.82;2.67;;;;;;;12.58;38.50;96872.72;6298766;28;20048;-74
2023/04/27 00:25:59;;;;;;;4.53;2.08;;;;;;;12.70;38.53;96891.25;6299457;28;20453;-73
2023/04/27 00:29:04;;;;;;;7.75;2.80;;;;;;;12.90;38.35;96880.06;6297210;28;20042;-75
2023/04/27 00:32:09;;;;;;;6.10;2.50;;;;;;;12.77;38.41;96897.78;6297064;28;20422;-74
2023/04/27 00:35:15;;;;;;;5.15;2.63;;;;;;;12.76;38.29;96904.00;6298161;28;20143;-74
2023/04/27 00:38:20;;;;;;;6.25;2.70;;;;;;;12.65;38.73;96896.84;6297781;28;20422;-74
2023/04/27 00:41:24;;;;;;;5.50;2.55;;;;;;;12.79;38.60;96903.75;6296728;28;20041;-74
2023/04/27 00:44:28;;;;;;;3.45;2.28;;;;;;;12.77;38.52;96910.97;6297714;28;20081;-74
2023/04/27 00:47:33;;;;;;;4.93;2.80;;;;;;;12.87;38.32;96911.97;6296216;28;20126;-74
2023/04/27 00:50:39;;;;;;;5.00;2.50;;;;;;;12.93;38.32;96900.94;6296368;28;20048;-74
2023/04/27 00:53:43;;;;;;;4.00;2.38;;;;;;;12.71;38.52;96938.66;6297664;28;20052;-74
2023/04/27 00:56:52;;;;;;;3.65;2.10;;;;;;;12.78;38.20;96908.22;6297187;28;20047;-73
2023/04/27 00:59:59;;;;;;;4.70;2.25;;;;;;;12.86;37.78;96862.75;6312309;28;20053;-74
2023/04/27 01:03:04;;;;;;;5.70;2.40;;;;;;;12.83;37.27;96852.44;6297089;28;20127;-74
2023/04/27 01:06:08;;;;;;;3.88;2.22;;;;;;;12.93;37.40;96837.56;6295334;28;20048;-74
2023/04/27 01:09:12;;;;;;;4.43;2.03;;;;;;;12.96;37.37;96825.94;6278664;28;20059;-74
2023/04/27 01:12:16;;;;;;;3.75;1.73;;;;;;;12.99;37.36;96834.50;6296710;28;20127;-74
2023/04/27 01:15:21;;;;;;;5.47;2.10;;;;;;;13.11;37.33;96845.09;6296995;28;20044;-74
2023/04/27 01:18:29;;;;;;;5.30;1.95;;;;;;;13.28;36.73;96831.47;6296549;28;20056;-74
2023/04/27 01:21:33;;;;;;;4.40;2.03;;;;;;;13.39;36.41;96834.13;6296762;28;20044;-74
2023/04/27 01:24:39;;;;;;;2.97;1.88;;;;;;;13.52;36.00;96822.59;6295185;28;20056;-74
2023/04/27 01:27:44;;;;;;;8.10;2.33;;;;;;;13.62;35.84;96826.22;6294989;28;20032;-74
2023/04/27 01:30:48;;;;;;;4.55;2.25;;;;;;;13.73;35.39;96818.28;6296638;28;20052;-73
2023/04/27 01:33:52;;;;;;;8.13;1.85;;;;;;;13.81;35.02;96829.09;6294988;28;20067;-73
2023/04/27 01:36:57;;;;;;;4.32;2.47;;;;;;;14.17;34.45;96829.78;6296103;28;20135;-75
2023/04/27 01:40:04;;;;;;;3.17;2.08;;;;;;;13.92;35.15;96829.09;6294122;28;20054;-74
2023/04/27 01:43:08;;;;;;;6.45;2.92;;;;;;;13.88;35.31;96832.94;6296012;28;20045;-74
2023/04/27 01:46:15;;;;;;;6.78;2.80;;;;;;;13.82;35.55;96824.66;6295986;28;20445;-74
2023/04/27 01:49:19;;;;;;;5.82;2.65;;;;;;;13.69;36.09;96835.34;6295701;28;20052;-75
2023/04/27 01:52:23;;;;;;;5.68;2.65;;;;;;;13.73;36.20;96839.44;6294786;28;20505;-74
2023/04/27 01:55:27;;;;;;;8.02;2.78;;;;;;;13.63;36.56;96841.13;6296007;28;20041;-75
2023/04/27 01:58:32;;;;;;;3.95;2.25;;;;;;;13.57;36.48;96847.72;6295725;28;20040;-73
2023/04/27 02:01:38;;;;;;;6.90;2.50;;;;;;;13.52;36.73;96838.47;6296133;28;20414;-74
2023/04/27 02:04:44;;;;;;;5.95;2.28;;;;;;;13.48;37.02;96844.00;6295577;28;20055;-73
2023/04/27 02:07:49;;;;;;;4.65;2.10;;;;;;;13.26;37.52;96849.22;6295161;28;20051;-75
2023/04/27 02:10:54;;;;;;;7.78;2.20;;;;;;;13.18;37.68;96852.41;6295058;28;20051;-74
2023/04/27 02:14:00;;;;;;;6.28;2.03;;;;;;;13.12;38.04;96849.41;6293882;28;20147;-74
2023/04/27 02:17:06;;;;;;;6.28;1.83;;;;;;;13.18;38.01;96868.25;6294890;28;20048;-74
2023/04/27 02:20:11;;;;;;;3.67;1.70;;;;;;;13.23;38.16;96870.56;6295023;28;20048;-75
2023/04/27 02:23:14;;;;;;;4.55;1.98;;;;;;;13.33;38.13;96861.00;6295409;28;20040;-74
2023/04/27 02:26:19;;;;;;;3.80;1.73;;;;;;;13.32;38.18;96842.63;6310421;28;20425;-74
2023/04/27 02:29:28;;;;;;;4.72;1.67;;;;;;;13.33;38.40;96833.75;6293638;28;20052;-75
2023/04/27 02:32:33;;;;;;;5.03;1.83;;;;;;;13.28;38.44;96847.31;6294786;28;20429;-74
2023/04/27 02:35:38;;;;;;;6.55;1.80;;;;;;;13.39;38.22;96849.13;6294543;28;20132;-74
2023/04/27 02:38:43;;;;;;;4.85;1.98;;;;;;;13.51;38.22;96868.50;6293471;28;20037;-74
2023/04/27 02:41:47;;;;;;;3.85;1.45;;;;;;;13.57;38.13;96878.59;6294798;28;20413;-74
2023/04/27 02:44:52;;;;;;;3.60;1.23;;;;;;;13.70;37.91;96874.03;6294668;28;20050;-75
2023/04/27 02:47:56;;;;;;;3.10;1.23;;;;;;;13.75;38.20;96877.16;6294606;28;20048;-75
2023/04/27 02:51:03;;;;;;;4.45;1.65;;;;;;;13.46;38.72;96871.50;6293345;28;20413;-74
2023/04/27 02:54:10;;;;;;;3.00;1.60;;;;;;;13.40;38.84;96861.41;6294517;28;20041;-74
2023/04/27 02:57:14;;;;;;;4.68;1.48;;;;;;;13.45;38.53;96870.66;6294375;28;20209;-74
2023/04/27 03:00:19;;;;;;;3.70;1.25;;;;;;;13.57;38.70;96878.59;6294626;28;20040;-75
2023/04/27 03:03:23;;;;;;;3.92;1.85;;;;;;;13.76;38.29;96867.44;6292531;28;20054;-74
2023/04/27 03:06:28;;;;;;;6.75;2.03;;;;;;;13.80;38.17;96859.16;6294321;28;20555;-74
2023/04/27 03:09:32;;;;;;;6.25;1.98;;;;;;;14.03;37.79;96849.41;6292504;28;20064;-74
2023/04/27 03:12:36;;;;;;;3.33;1.63;;;;;;;14.16;37.69;96849.28;6294189;28;20044;-75
2023/04/27 03:15:42;;;;;;;4.13;1.85;;;;;;;14.24;37.52;96852.16;6292491;28;20067;-74
2023/04/27 03:18:47;;;;;;;4.80;2.22;;;;;;;14.52;36.84;96856.13;6294172;28;20098;-74
2023/04/27 03:21:53;;;;;;;3.83;1.83;;;;;;;14.70;36.58;96852.94;6294314;28;20040;-75
2023/04/27 03:24:57;;;;;;;7.35;1.75;;;;;;;14.60;36.61;96848.34;6293335;28;20040;-74
2023/04/27 03:28:07;;;;;;;4.43;2.03;;;;;;;14.87;36.23;96855.03;6292981;28;20446;-75
2023/04/27 03:31:12;;;;;;;3.33;1.73;;;;;;;14.91;36.10;96863.56;6292310;28;20053;-74
2023/04/27 03:34:22;;;;;;;3.95;1.77;;;;;;;14.93;36.18;96861.63;6292021;28;20070;-74
2023/04/27 03:37:28;;;;;;;6.13;1.95;;;;;;;15.05;36.06;96858.78;6293989;28;20063;-74
2023/04/27 03:40:34;;;;;;;3.38;1.45;;;;;;;15.25;35.76;96859.78;6293919;28;20498;-74
2023/04/27 03:43:41;;;;;;;5.85;2.10;;;;;;;15.38;35.74;96864.91;6292221;28;20032;-74
2023/04/27 03:46:45;;;;;;;5.57;2.00;;;;;;;15.77;35.03;96864.31;6292127;28;20049;-74
2023/04/27 03:49:49;;;;;;;6.53;1.83;;;;;;;15.80;35.02;96859.59;6293678;28;20091;-74
2023/04/27 03:52:55;;;;;;;3.20;1.48;;;;;;;16.03;34.77;96860.25;6294004;28;20086;-74
2023/04/27 03:56:04;;;;;;;4.82;1.83;;;;;;;16.20;34.24;96842.00;6292498;28;20118;-75
2023/04/27 03:59:09;;;;;;;5.30;3.13;;;;;;;16.32;34.16;96830.28;6294208;28;20049;-73
2023/04/27 04:02:13;;;;;;;8.13;2.60;;;;;;;16.52;34.00;96834.66;6292440;28;20041;-74
2023/04/27 04:05:17;;;;;;;2.50;1.98;;;;;;;16.80;33.58;96825.06;6297539;28;20036;-74
2023/04/27 04:08:22;;;;;;;4.72;1.63;;;;;;;16.98;33.33;96825.22;6298495;28;20051;-74
2023/04/27 04:11:29;;;;;;;4.00;1.67;;;;;;;17.28;32.81;96831.34;6298439;28;20040;-75
2023/04/27 04:14:36;;;;;;;4.75;1.77;;;;;;;17.57;32.17;96825.13;6296633;28;20045;-74
2023/04/27 04:17:46;;;;;;;3.80;1.52;;;;;;;17.87;31.93;96832.91;6297820;28;20048;-74
2023/04/27 04:20:58;;;;;;;4.57;2.15;;;;;;;18.14;31.39;96841.91;6296586;28;20051;-75
2023/04/27 04:24:03;;;;;;;5.10;1.83;;;;;;;18.26;31.62;96843.41;6297097;28;20051;-73
2023/04/27 04:27:08;;;;;;;7.55;2.08;;;;;;;18.22;31.64;96828.69;6297892;28;20044;-74
2023/04/27 04:30:15;;;;;;;4.75;1.70;;;;;;;18.17;31.49;96837.16;6295662;28;20059;-74
2023/04/27 04:33:20;;;;;;;6.72;2.00;;;;;;;18.48;31.29;96839.47;6296161;28;20363;-75
2023/04/27 04:36:24;;;;;;;6.00;2.20;;;;;;;18.82;30.79;96852.19;6295902;28;20174;-74
2023/04/27 04:39:34;;;;;;;4.03;1.92;;;;;;;19.54;29.85;96860.16;6297076;28;20443;-74
2023/04/27 04:42:41;;;;;;;2.85;1.70;;;;;;;20.22;29.22;96880.81;6295684;28;20041;-74
2023/04/27 04:45:46;;;;;;;6.50;2.08;;;;;;;20.55;28.66;96849.72;6297049;28;20490;-75
2023/04/27 04:48:54;;;;;;;6.53;2.05;;;;;;;20.67;28.51;96835.06;6297079;28;20101;-74
2023/04/27 04:51:59;;;;;;;6.50;1.98;;;;;;;21.31;27.67;96840.66;6296862;28;20048;-73
2023/04/27 04:55:03;;;;;;;4.35;1.95;;;;;;;22.20;26.43;96830.84;6296802;28;20040;-74
2023/04/27 04:58:08;;;;;;;4.72;2.00;;;;;;;22.79;25.70;96841.97;6296571;28;20041;-75
2023/04/27 05:01:15;;;;;;;6.80;2.30;;;;;;;22.59;25.93;96835.34;6296620;28;20041;-74
2023/04/27 05:04:21;;;;;;;8.00;2.60;;;;;;;22.06;26.40;96796.69;6296187;28;20037;-74
2023/04/27 05:07:28;;;;;;;3.13;1.38;;;;;;;22.27;26.48;96796.97;6296876;28;20037;-73
2023/04/27 05:10:34;;;;;;;6.43;2.13;;;;;;;22.13;26.50;96819.09;6296726;28;20055;-74
2023/04/27 05:13:39;;;;;;;6.20;2.55;;;;;;;21.76;27.17;96812.50;6296730;28;20569;-74
2023/04/27 05:16:42;;;;;;;7.78;3.15;;;;;;;21.44;27.61;96814.25;6295022;28;20052;-75
2023/04/27 05:19:47;;;;;;;5.65;2.30;;;;;;;21.08;28.05;96814.53;6296390;28;20044;-74
2023/04/27 05:22:51;;;;;;;7.32;2.45;;;;;;;20.97;27.88;96809.53;6294975;28;20053;-74
2023/04/27 05:25:55;;;;;;;4.43;1.88;;;;;;;20.63;28.49;96810.47;6295180;28;20041;-73
2023/04/27 05:28:58;;;;;;;7.35;2.25;;;;;;;20.73;28.48;96806.84;6294871;28;20047;-74
2023/04/27 05:32:02;;;;;;;5.93;2.30;;;;;;;21.19;28.40;96809.88;6296274;28;20043;-74
2023/04/27 05:35:09;;;;;;;7.53;2.80;;;;;;;21.98;27.17;96814.47;6296071;28;20036;-74
2023/04/27 05:38:17;;;;;;;7.22;1.88;;;;;;;22.84;26.43;96828.00;6295068;28;20467;-74
2023/04/27 05:41:22;;;;;;;7.18;1.60;;;;;;;23.77;24.91;96820.75;6295683;28;20047;-74
2023/04/27 05:44:28;;;;;;;8.48;1.90;;;;;;;24.39;24.33;96829.28;6295828;28;20055;-74
2023/04/27 05:47:36;;;;;;;3.03;1.40;;;;;;;24.79;23.87;96831.66;6295474;28;20044;-74
2023/04/27 05:50:41;;;;;;;6.45;2.58;;;;;;;24.94;23.23;96840.53;6295568;28;20044;-74
2023/04/27 05:53:45;;;;;;;8.55;3.35;;;;;;;25.59;22.73;96825.22;6295809;28;20044;-73
2023/04/27 05:56:50;;;;;;;6.85;2.10;;;;;;;26.47;21.33;96838.22;6295624;28;20052;-74
2023/04/27 05:59:59;;;;;;;6.75;2.83;;;;;;;26.95;21.02;96835.50;6295458;28;20413;-73
2023/04/27 06:03:12;;;;;;;4.25;1.88;;;;;;;27.67;20.25;96828.56;6295484;28;20056;-75
2023/04/27 06:06:39;;;;;;;5.00;2.58;;;;;;;27.96;19.79;96827.31;6278330;28;20135;-73
2023/04/27 06:09:46;;;;;;;5.57;2.05;;;;;;;27.83;19.99;96824.63;6295315;28;20044;-74
2023/04/27 06:12:54;;;;;;;5.70;2.05;;;;;;;27.91;20.11;96829.81;6294843;28;20052;-74
2023/04/27 06:16:01;;;;;;;6.22;1.88;;;;;;;28.00;19.97;96828.56;6294042;28;20044;-73
2023/04/27 06:19:06;;;;;;;4.90;1.83;;;;;;;27.98;20.09;96819.84;6293723;28;20063;-74
2023/04/27 06:22:10;;;;;;;6.22;2.05;;;;;;;27.77;20.22;96816.31;6294915;28;20041;-74
2023/04/27 06:25:16;;;;;;;5.18;1.88;;;;;;;27.77;20.39;96821.72;6294944;28;20049;-73
2023/04/27 06:28:20;;;;;;;7.57;2.60;;;;;;;28.04;20.36;96810.88;6293631;28;20047;-74
2023/04/27 06:31:25;;;;;;;8.77;2.33;;;;;;;27.63;20.78;96811.09;6293289;28;20105;-74
2023/04/27 06:34:42;;;;;;;6.32;2.00;;;;;;;27.19;21.19;96826.88;6293838;28;20101;-73
2023/04/27 06:37:50;;;;;;;9.20;1.38;;;;;;;27.43;21.17;96822.75;6293597;28;20067;-74
2023/04/27 06:40:55;;;;;;;4.25;1.50;;;;;;;27.19;21.36;96820.66;6294891;28;20036;-74
2023/04/27 06:44:03;;;;;;;3.53;1.58;;;;;;;26.73;21.75;96811.38;6294727;28;20055;-74
2023/04/27 06:47:07;;;;;;;9.65;1.90;;;;;;;26.51;22.09;96807.13;6293421;28;20143;-73
2023/04/27 06:50:13;;;;;;;7.85;1.90;;;;;;;26.43;22.26;96790.03;6294475;28;20051;-74
2023/04/27 06:53:18;;;;;;;3.58;1.23;;;;;;;26.25;22.40;96789.78;6295005;28;20639;-74
2023/04/27 06:56:23;;;;;;;5.90;1.98;;;;;;;25.41;23.73;96785.25;6294565;28;20047;-73
2023/04/27 06:59:27;;;;;;;5.47;1.60;;;;;;;25.17;24.01;96777.63;6294206;28;20429;-74
2023/04/27 07:02:33;;;;;;;7.65;2.20;;;;;;;25.46;24.01;96780.13;6294457;28;20422;-73
2023/04/27 07:05:40;;;;;;;6.32;1.92;;;;;;;26.09;23.43;96777.44;6294416;28;20036;-74
2023/04/27 07:08:43;;;;;;;11.10;1.70;;;;;;;26.92;22.28;96763.03;6292905;28;20075;-73
2023/04/27 07:11:47;;;;;;;7.35;1.80;;;;;;;27.31;21.91;96768.50;6294285;28;20044;-73
2023/04/27 07:14:52;;;;;;;8.15;2.60;;;;;;;27.31;21.87;96760.38;6294509;28;20418;-74
2023/04/27 07:21:38;;;;;;;7.10;1.80;;;;;;;27.94;21.27;96761.78;6293113;28;20541;-74
2023/04/27 07:24:45;;;;;;;6.22;1.98;;;;;;;27.85;21.42;96763.88;6292981;28;20079;-74
2023/04/27 07:27:51;;;;;;;7.55;1.95;;;;;;;28.05;21.33;96757.59;6293974;28;20040;-74
2023/04/27 07:30:57;;;;;;;6.70;1.58;;;;;;;27.98;21.31;96760.34;6293913;28;20044;-73
2023/04/27 07:34:03;;;;;;;9.30;3.03;;;;;;;27.65;21.42;96750.38;6292909;28;20048;-74
2023/04/27 07:37:11;;;;;;;10.90;3.58;;;;;;;27.35;22.16;96754.59;6292747;28;20123;-74
2023/04/27 07:40:20;;;;;;;11.60;2.58;;;;;;;27.09;22.44;96750.78;6296274;28;20052;-74
2023/04/27 07:43:31;;;;;;;6.20;2.22;;;;;;;27.08;22.46;96754.53;6281236;28;20052;-74
2023/04/27 07:46:35;;;;;;;7.82;1.92;;;;;;;26.78;22.80;96743.25;6298630;28;20502;-74
2023/04/27 07:49:40;;;;;;;8.45;2.30;;;;;;;26.78;22.94;96744.13;6297063;28;20044;-75
2023/04/27 07:52:45;;;;;;;6.35;1.90;;;;;;;26.67;23.00;96739.31;6297269;28;20048;-76
2023/04/27 07:55:51;;;;;;;8.40;2.25;;;;;;;26.70;23.02;96736.22;6298509;28;20426;-75
2023/04/27 07:58:57;;;;;;;8.05;2.58;;;;;;;26.67;22.67;96736.63;6298389;28;20044;-74
2023/04/27 08:02:02;;;;;;;7.30;2.25;;;;;;;26.32;23.29;96730.47;6297032;28;20052;-74
2023/04/27 08:05:18;;;;;;;7.93;1.88;;;;;;;26.73;22.86;96719.59;6279674;28;20403;-75
2023/04/27 08:08:27;;;;;;;15.93;2.45;;;;;;;26.53;23.03;96724.13;6297133;28;20055;-75
2023/04/27 08:11:33;;;;;;;3.85;1.90;;;;;;;26.71;22.47;96732.47;6298063;28;20071;-75
2023/04/27 08:14:38;;;;;;;10.63;2.83;;;;;;;26.32;22.92;96731.28;6297810;28;20044;-74
2023/04/27 08:17:43;;;;;;;7.03;1.80;;;;;;;26.57;23.07;96733.47;6297592;28;20395;-75
2023/04/27 08:20:51;;;;;;;8.35;2.33;;;;;;;27.22;22.34;96729.22;6296914;28;20221;-75
2023/04/27 08:23:58;;;;;;;12.13;2.60;;;;;;;27.91;21.65;96722.50;6296512;28;20418;-73
2023/04/27 08:27:03;;;;;;;13.35;3.42;;;;;;;28.67;20.40;96729.06;6279655;28;20417;-75
2023/04/27 08:30:08;;;;;;;11.57;2.65;;;;;;;29.33;19.93;96735.91;6280096;28;20541;-74
2023/04/27 08:33:14;;;;;;;10.10;3.05;;;;;;;30.10;19.36;96730.16;6312917;28;20075;-74
2023/04/27 08:36:23;;;;;;;11.60;3.05;;;;;;;30.85;18.22;96722.53;6296184;28;20050;-73
2023/04/27 08:39:28;;;;;;;11.32;2.55;;;;;;;30.51;19.01;96718.59;6296208;28;20095;-74
2023/04/27 08:42:35;;;;;;;7.43;2.50;;;;;;;29.99;19.16;96708.16;6297123;28;20036;-74
2023/04/27 08:45:49;;;;;;;10.23;2.83;;;;;;;31.60;18.28;96704.00;6297061;28;20041;-74
2023/04/27 08:48:58;;;;;;;11.40;3.38;;;;;;;33.38;16.71;96700.44;6296818;28;20049;-74
2023/04/27 08:52:03;;;;;;;11.43;2.45;;;;;;;34.62;15.21;96693.66;6297259;28;20048;-75
2023/04/27 08:55:07;;;;;;;10.45;2.92;;;;;;;33.68;14.96;96698.16;6296199;28;20095;-75
2023/04/27 08:58:13;;;;;;;13.15;3.83;;;;;;;33.59;15.28;96696.13;6297228;28;20047;-75
2023/04/27 09:01:19;;;;;;;10.15;2.30;;;;;;;34.26;14.97;96687.78;6295508;28;20071;-75
2023/04/27 09:04:23;;;;;;;10.05;2.67;;;;;;;34.80;13.75;96696.03;6296739;28;20127;-73
2023/04/27 09:07:27;;;;;;;11.98;3.22;;;;;;;33.36;14.59;96676.13;6296674;28;20458;-75
2023/04/27 09:10:45;;;;;;;19.15;4.30;;;;;;;33.50;14.84;96680.16;6295547;28;20037;-75
2023/04/27 09:13:56;;;;;;;16.95;3.70;;;;;;;32.45;15.06;96665.25;6295619;28;20067;-76
2023/04/27 09:17:00;;;;;;;20.05;4.00;;;;;;;32.71;14.38;96672.00;6295095;28;20040;-74
2023/04/27 09:20:11;;;;;;;15.13;3.97;;;;;;;32.73;14.91;96661.69;6295367;28;20557;-75
2023/04/27 09:23:50;;;;;;;22.00;4.07;;;;;;;32.82;15.42;96671.13;6296514;28;20486;-75
2023/04/27 09:26:53;;;;;;;12.93;3.47;;;;;;;31.36;15.94;96673.25;6274499;28;20560;-74
2023/04/27 09:29:57;;;;;;;10.95;2.60;;;;;;;30.46;16.81;96663.31;6294567;28;20052;-75
2023/04/27 09:33:02;;;;;;;13.95;3.60;;;;;;;28.80;18.19;96649.63;6296187;28;20052;-75
2023/04/27 09:36:09;;;;;;;14.65;3.47;;;;;;;28.49;18.36;96648.59;6296308;28;20430;-74
2023/04/27 09:39:17;;;;;;;12.18;3.42;;;;;;;28.40;18.19;96655.28;6296100;28;20159;-73
2023/04/27 09:42:24;;;;;;;11.25;3.22;;;;;;;28.70;17.96;96660.09;6296014;28;20045;-75
2023/04/27 09:45:28;;;;;;;13.43;3.53;;;;;;;28.00;18.39;96652.78;6296282;28;20200;-75
2023/04/27 09:48:33;;;;;;;16.90;4.75;;;;;;;26.99;19.38;96669.38;6296119;28;20252;-74
2023/04/27 09:51:38;;;;;;;11.43;3.42;;;;;;;26.70;19.70;96649.84;6295675;28;20068;-74
2023/04/27 09:54:42;;;;;;;25.65;4.80;;;;;;;26.63;19.54;96635.50;6295729;28;20085;-75
2023/04/27 09:58:25;;;;;;;15.93;3.67;;;;;;;26.80;19.24;96647.53;6295624;28;20063;-75
2023/04/27 10:01:50;;;;;;;18.65;3.83;;;;;;;26.05;19.73;96651.34;6295154;28;20038;-75
2023/04/27 10:05:21;;;;;;;19.50;4.78;;;;;;;25.67;19.59;96660.66;6295553;28;20152;-74
2023/04/27 10:08:25;;;;;;;18.15;4.95;;;;;;;25.32;19.40;96641.00;6295117;28;20506;-73
2023/04/27 10:11:43;;;;;;;18.35;4.60;;;;;;;25.10;19.22;96638.34;6295094;28;20048;-75
2023/04/27 10:14:56;;;;;;;21.90;4.72;;;;;;;25.19;18.97;96646.31;6276806;28;20135;-73
2023/04/27 10:18:10;;;;;;;21.70;3.92;;;;;;;25.52;18.73;96641.94;6293899;28;20052;-75
2023/04/27 10:21:15;;;;;;;15.48;4.80;;;;;;;26.03;18.36;96626.44;6295157;28;20047;-74
2023/04/27 10:24:29;;;;;;;15.45;4.13;;;;;;;26.52;18.16;96611.81;6293518;28;20426;-74
2023/04/27 10:27:39;;;;;;;18.92;3.70;;;;;;;27.02;17.74;96631.97;6293464;28;20106;-74
2023/04/27 10:30:47;;;;;;;18.98;4.63;;;;;;;27.14;17.08;96623.22;6293510;28;20041;-74
2023/04/27 10:33:52;;;;;;;19.02;4.78;;;;;;;27.16;17.25;96611.22;6293222;28;20052;-75
2023/04/27 10:37:09;;;;;;;31.70;6.10;;;;;;;27.30;16.90;96593.94;6293348;28;20056;-75
2023/04/27 10:40:16;;;;;;;19.52;4.40;;;;;;;27.19;16.66;96588.34;6293600;28;20131;-75
2023/04/27 10:43:25;;;;;;;15.13;3.95;;;;;;;27.14;16.08;96605.16;6294653;28;20040;-74
2023/04/27 10:46:34;;;;;;;21.75;5.32;;;;;;;27.06;15.75;96621.56;6293527;28;20045;-74
2023/04/27 10:49:41;;;;;;;31.27;6.00;;;;;;;26.62;16.14;96599.59;6294724;28;20490;-75
2023/04/27 10:52:45;;;;;;;25.38;3.83;;;;;;;26.15;16.07;96592.44;6294472;28;20044;-75
2023/04/27 10:55:55;;;;;;;21.98;4.28;;;;;;;25.60;17.40;96588.94;6294563;28;20044;-74
2023/04/27 10:59:03;;;;;;;17.52;5.18;;;;;;;25.48;17.80;96586.81;6294321;28;20052;-74
2023/04/27 11:02:06;;;;;;;12.68;2.05;;;;;;;25.33;18.81;96610.34;6293438;28;20147;-74
2023/04/27 11:05:32;;;;;;;12.73;2.92;;;;;;;25.07;19.22;96595.66;6292959;28;20537;-74
2023/04/27 11:08:44;;;;;;;18.48;3.22;;;;;;;24.59;20.05;96592.81;6294450;28;20525;-75
2023/04/27 11:11:49;;;;;;;16.05;3.17;;;;;;;24.43;20.33;96585.06;6294474;28;20102;-74
2023/04/27 11:15:01;;;;;;;14.50;3.53;;;;;;;24.51;20.09;96570.63;6297392;28;20036;-74
2023/04/27 11:18:11;;;;;;;14.05;3.00;;;;;;;24.45;20.37;96566.84;6297411;28;20567;-74
2023/04/27 11:21:20;;;;;;;13.38;2.97;;;;;;;24.64;20.21;96579.63;6299293;28;20048;-74
2023/04/27 11:24:49;;;;;;;11.95;2.38;;;;;;;24.99;20.10;96558.13;6299346;28;20040;-74
2023/04/27 11:27:54;;;;;;;14.25;2.97;;;;;;;25.05;19.61;96565.44;6299578;28;20452;-75
2023/04/27 11:30:59;;;;;;;10.50;3.05;;;;;;;25.61;18.87;96571.72;6298598;28;20193;-74
2023/04/27 11:34:07;;;;;;;7.32;2.28;;;;;;;25.71;18.98;96564.94;6298935;28;20101;-75
2023/04/27 11:37:23;;;;;;;9.63;2.75;;;;;;;25.87;18.67;96561.06;6298537;28;20040;-74
2023/04/27 11:40:31;;;;;;;10.57;2.45;;;;;;;25.47;19.16;96585.13;6297153;28;20052;-74
2023/04/27 11:43:37;;;;;;;7.05;1.45;;;;;;;25.53;19.50;96552.03;6298605;28;20049;-75
2023/04/27 11:46:46;;;;;;;11.00;3.10;;;;;;;25.13;19.53;96555.53;6298439;28;20070;-74
2023/04/27 11:49:54;;;;;;;16.52;4.28;;;;;;;25.07;19.99;96557.97;6298377;28;20033;-75
2023/04/27 11:53:03;;;;;;;7.97;1.98;;;;;;;25.55;19.12;96557.19;6298373;28;20883;-76
2023/04/27 11:56:11;;;;;;;14.52;3.67;;;;;;;25.39;19.45;96565.63;6298001;28;20052;-75
2023/04/27 11:59:22;;;;;;;10.10;2.70;;;;;;;25.28;18.54;96538.25;6279883;28;20186;-75
2023/04/27 12:02:30;;;;;;;16.70;3.60;;;;;;;25.03;19.07;96556.72;6297650;28;20045;-74
2023/04/27 12:05:36;;;;;;;9.57;2.80;;;;;;;25.03;18.92;96563.97;6297932;28;20041;-75
2023/04/27 12:08:44;;;;;;;17.13;3.85;;;;;;;24.83;19.28;96561.16;6298138;28;20520;-75
2023/04/27 12:11:49;;;;;;;22.42;3.30;;;;;;;24.80;19.12;96554.31;6297652;28;20048;-74
2023/04/27 12:14:54;;;;;;;11.70;2.60;;;;;;;25.12;19.12;96567.34;6297994;28;20418;-75
2023/04/27 12:17:58;;;;;;;14.52;3.03;;;;;;;24.74;19.26;96578.44;6297318;28;20053;-75
2023/04/27 12:21:04;;;;;;;14.15;2.83;;;;;;;24.60;19.82;96580.19;6297826;28;20106;-73
2023/04/27 12:24:09;;;;;;;13.23;2.92;;;;;;;24.19;19.97;96565.56;6297117;28;20055;-74
2023/04/27 12:27:17;;;;;;;14.48;2.55;;;;;;;24.18;19.19;96568.44;6297590;28;20133;-75
2023/04/27 12:30:24;;;;;;;17.20;3.47;;;;;;;23.89;19.50;96564.84;6297621;28;20036;-74
2023/04/27 12:33:29;;;;;;;10.98;2.42;;;;;;;23.65;19.66;96560.63;6297676;28;20042;-75
2023/04/27 12:36:35;;;;;;;10.82;3.22;;;;;;;23.46;19.96;96551.31;6297740;28;20497;-74
2023/04/27 12:39:38;;;;;;;11.10;2.83;;;;;;;23.38;20.13;96577.41;6295391;28;20060;-75
2023/04/27 12:42:43;;;;;;;17.35;3.25;;;;;;;23.10;20.58;96556.66;6297235;28;20479;-75
2023/04/27 12:45:47;;;;;;;10.50;3.20;;;;;;;23.11;20.81;96566.34;6296018;28;20044;-75
2023/04/27 12:48:52;;;;;;;12.70;2.95;;;;;;;22.83;21.57;96553.53;6296939;28;20047;-75
2023/04/27 12:51:57;;;;;;;7.47;2.05;;;;;;;22.53;22.29;96557.19;6296990;28;20497;-75
2023/04/27 12:55:03;;;;;;;11.98;1.90;;;;;;;22.41;22.29;96570.19;6297060;28;20131;-75
2023/04/27 12:58:08;;;;;;;8.07;2.00;;;;;;;22.18;22.69;96546.94;6296100;28;20139;-73
2023/04/27 13:01:16;;;;;;;7.05;2.40;;;;;;;21.96;22.85;96555.78;6296717;28;20040;-75
2023/04/27 13:04:21;;;;;;;7.50;1.83;;;;;;;21.84;22.93;96558.03;6296980;28;20048;-75
2023/04/27 13:07:26;;;;;;;10.07;2.22;;;;;;;21.89;23.04;96550.31;6296787;28;20041;-76
2023/04/27 13:10:30;;;;;;;9.45;2.00;;;;;;;21.88;23.02;96543.31;6296561;28;20098;-76
2023/04/27 13:13:35;;;;;;;8.30;2.90;;;;;;;22.08;22.82;96549.00;6296215;28;20044;-76
2023/04/27 13:16:41;;;;;;;9.13;3.33;;;;;;;21.92;23.02;96549.13;6295356;28;20051;-75
2023/04/27 13:19:45;;;;;;;12.05;2.25;;;;;;;21.68;23.04;96552.78;6296386;28;20059;-75
2023/04/27 13:22:50;;;;;;;9.93;2.60;;;;;;;21.53;23.50;96556.22;6296187;28;20041;-75
2023/04/27 13:25:55;;;;;;;9.38;2.10;;;;;;;21.37;23.95;96547.44;6295135;28;20040;-75
2023/04/27 13:29:03;;;;;;;9.02;2.35;;;;;;;21.29;24.02;96551.81;6295976;28;20399;-76
2023/04/27 13:32:07;;;;;;;9.80;2.42;;;;;;;21.20;24.04;96544.84;6296063;28;20051;-74
2023/04/27 13:35:13;;;;;;;10.07;2.67;;;;;;;21.19;24.17;96539.63;6295730;28;20036;-75
2023/04/27 13:38:17;;;;;;;11.35;2.55;;;;;;;21.13;24.20;96548.38;6293974;28;20567;-74
2023/04/27 13:41:22;;;;;;;11.65;3.50;;;;;;;20.97;24.11;96541.22;6295771;28;20052;-75
2023/04/27 13:44:26;;;;;;;10.45;2.78;;;;;;;21.03;23.67;96549.41;6294247;28;20044;-74
2023/04/27 13:47:36;;;;;;;8.75;2.72;;;;;;;21.11;23.27;96558.41;6294452;28;20047;-75
2023/04/27 13:50:40;;;;;;;13.57;2.95;;;;;;;21.27;23.22;96539.59;6294463;28;20086;-75
2023/04/27 13:53:44;;;;;;;8.57;2.20;;;;;;;21.35;22.96;96552.94;6295410;28;20043;-74
2023/04/27 13:56:49;;;;;;;9.20;2.70;;;;;;;21.42;22.84;96545.91;6295255;28;20043;-75
2023/04/27 13:59:54;;;;;;;15.02;2.70;;;;;;;21.51;22.82;96557.41;6294082;28;20044;-75
2023/04/27 14:03:00;;;;;;;11.32;2.63;;;;;;;21.40;22.88;96561.31;6295562;28;20525;-74
2023/04/27 14:06:05;;;;;;;9.48;1.90;;;;;;;21.31;22.97;96562.31;6294780;28;20110;-75
2023/04/27 14:09:10;;;;;;;5.90;2.05;;;;;;;21.19;23.23;96535.13;6294635;28;20513;-75
2023/04/27 14:12:14;;;;;;;8.35;2.50;;;;;;;21.07;23.28;96536.50;6294914;28;20040;-75
2023/04/27 14:15:19;;;;;;;4.55;1.95;;;;;;;20.82;23.71;96530.41;6295003;28;20040;-76
2023/04/27 14:18:24;;;;;;;13.43;2.78;;;;;;;20.80;23.83;96527.06;6294530;28;20521;-74
2023/04/27 14:21:28;;;;;;;7.65;2.65;;;;;;;20.61;23.83;96526.47;6294709;28;20040;-75
2023/04/27 14:24:34;;;;;;;8.00;2.90;;;;;;;20.54;24.17;96525.47;6293420;28;20044;-76
2023/04/27 14:27:39;;;;;;;7.85;3.00;;;;;;;20.54;24.08;96530.81;6293513;28;20071;-75
2023/04/27 14:30:43;;;;;;;12.50;3.15;;;;;;;20.47;24.01;96528.97;6294704;28;20040;-76
2023/04/27 14:33:47;;;;;;;11.80;2.42;;;;;;;20.29;24.36;96529.13;6294910;28;20051;-75
2023/04/27 14:36:53;;;;;;;8.02;2.30;;;;;;;20.23;23.58;96529.81;6294628;28;20041;-75
2023/04/27 14:39:58;;;;;;;10.38;2.70;;;;;;;20.02;24.01;96523.16;6293857;28;20561;-75